Time;durP1;ratioP1;P1;durP2;ratioP2;P2;SDS_P1;SDS_P2;PMS_P1;PMS_P2;Temp;Humidity;BMP_temperature;BMP_pressure;BME280_temperature;BME280_humidity;BME280_pressure;Samples;Min_cycle;Max_cycle;Signal;HPM_P1;HPM_P2
2022/07/23 00:00:55;;;;;;;6.30;4.47;;;30.70;20.00;;;;;;21257120;27;20047;-55
2022/07/23 00:10:57;;;;;;;8.90;5.22;;;30.80;20.20;;;;;;21257600;27;20118;-55
2022/07/23 00:21:00;;;;;;;8.55;4.53;;;30.70;20.50;;;;;;21255545;27;20043;-56
2022/07/23 00:31:01;;;;;;;8.65;4.75;;;30.30;21.50;;;;;;21255334;27;20095;-55
2022/07/23 00:41:03;;;;;;;10.63;4.80;;;30.10;21.90;;;;;;21254637;27;20059;-53
2022/07/23 00:51:05;;;;;;;8.23;4.85;;;29.80;22.60;;;;;;21254549;27;20088;-54
2022/07/23 01:01:07;;;;;;;8.02;4.10;;;29.50;22.90;;;;;;21252345;27;20058;-56
2022/07/23 01:11:09;;;;;;;9.68;5.10;;;29.10;23.20;;;;;;21252772;27;20043;-56
2022/07/23 01:21:15;;;;;;;10.18;4.35;;;29.00;23.10;;;;;;21251913;27;20104;-55
2022/07/23 01:31:19;;;;;;;8.77;3.95;;;28.70;23.60;;;;;;21250665;27;20043;-55
2022/07/23 01:41:24;;;;;;;9.45;3.83;;;28.30;23.50;;;;;;21250450;27;20468;-54
2022/07/23 01:51:33;;;;;;;8.15;3.88;;;28.10;23.30;;;;;;21249844;27;20047;-55
2022/07/23 02:01:36;;;;;;;8.63;3.90;;;27.60;23.30;;;;;;21249631;27;20100;-55
2022/07/23 02:11:39;;;;;;;10.50;4.20;;;27.40;23.50;;;;;;21248096;27;20100;-54
2022/07/23 02:21:42;;;;;;;8.68;3.90;;;27.20;23.70;;;;;;21248356;27;20479;-55
2022/07/23 02:31:46;;;;;;;7.82;4.30;;;27.10;23.70;;;;;;21247759;28;20091;-55
2022/07/23 02:41:49;;;;;;;10.80;4.55;;;26.90;24.60;;;;;;21247047;28;20059;-55
2022/07/23 02:51:51;;;;;;;7.45;4.18;;;26.60;24.10;;;;;;21247415;28;20046;-56
2022/07/23 03:01:53;;;;;;;10.30;3.97;;;26.50;24.10;;;;;;21246240;28;20104;-55
2022/07/23 03:11:55;;;;;;;6.88;4.28;;;26.60;23.70;;;;;;21246041;28;20046;-54
2022/07/23 03:21:58;;;;;;;7.07;3.95;;;26.40;24.20;;;;;;21251852;27;20051;-56
2022/07/23 03:32:02;;;;;;;6.40;3.72;;;26.30;24.40;;;;;;21261951;27;20074;-55
2022/07/23 03:42:05;;;;;;;6.53;3.78;;;26.00;24.00;;;;;;21259439;27;20065;-56
2022/07/23 03:52:07;;;;;;;6.93;3.63;;;;;;;;;;21258812;27;20047;-54
2022/07/23 04:02:09;;;;;;;;;;;;;;;;;;21259950;27;20051;-55
2022/07/23 04:12:10;;;;;;;6.23;3.73;;;;;;;;;;21258005;27;19919;-55
2022/07/23 04:22:12;;;;;;;10.43;4.53;;;;;;;;;;21256460;27;20051;-54
2022/07/23 04:32:14;;;;;;;6.63;4.35;;;;;;;;;;21256036;27;20082;-54
2022/07/23 04:42:17;;;;;;;6.78;4.28;;;;;;;;;;21255146;27;20054;-56
2022/07/23 04:52:22;;;;;;;7.78;4.28;;;;;;;;;;21255213;27;20502;-55
2022/07/23 05:02:32;;;;;;;7.60;4.70;;;;;;;;;;21253100;27;20050;-54
2022/07/23 05:12:34;;;;;;;8.30;4.95;;;;;;;;;;21251943;27;20047;-54
2022/07/23 05:22:36;;;;;;;;;;;;;;;;;;21252524;27;20187;-55
2022/07/23 05:32:38;;;;;;;9.35;5.07;;;;;;;;;;21250996;27;19923;-53
2022/07/23 05:42:40;;;;;;;;;;;;;;;;;;21250233;27;20130;-56
2022/07/23 05:52:42;;;;;;;7.50;4.90;;;;;;;;;;21249982;27;19955;-58
2022/07/23 06:02:44;;;;;;;12.40;5.80;;;;;;;;;;21250997;27;20050;-57
2022/07/23 06:12:47;;;;;;;9.23;5.20;;;;;;;;;;21249127;27;20047;-55
2022/07/23 06:22:49;;;;;;;9.85;5.32;;;;;;;;;;21249136;27;20511;-55
2022/07/23 06:32:51;;;;;;;6.90;5.10;;;;;;;;;;21247374;28;20078;-55
2022/07/23 06:42:53;;;;;;;16.00;5.63;;;;;;;;;;21247360;28;20502;-55
2022/07/23 06:52:56;;;;;;;11.15;5.68;;;;;;;;;;21246789;28;20052;-56
2022/07/23 07:03:12;;;;;;;13.10;5.75;;;;;;;;;;21262864;27;20054;-56
2022/07/23 07:13:14;;;;;;;11.77;5.40;;;;;;;;;;21263281;27;20047;-56
2022/07/23 07:23:16;;;;;;;9.38;5.50;;;;;;;;;;21261706;27;20137;-54
2022/07/23 07:33:18;;;;;;;10.85;5.50;;;;;;;;;;21262052;27;20043;-55
2022/07/23 07:43:23;;;;;;;8.32;5.25;;;;;;;;;;21260296;27;20079;-54
2022/07/23 07:53:26;;;;;;;11.40;5.70;;;;;;;;;;21259377;27;20050;-56
2022/07/23 08:03:28;;;;;;;10.38;5.10;;;;;;;;;;21258142;27;20051;-56
2022/07/23 08:13:30;;;;;;;8.93;4.70;;;;;;;;;;21257472;27;20138;-55
2022/07/23 08:23:32;;;;;;;10.13;5.10;;;;;;;;;;21256996;27;20047;-57
2022/07/23 08:33:34;;;;;;;10.02;5.35;;;;;;;;;;21255906;27;20047;-55
2022/07/23 08:43:36;;;;;;;11.98;5.88;;;;;;;;;;21254924;27;20051;-54
2022/07/23 08:53:40;;;;;;;7.50;5.10;;;;;;;;;;21254307;27;20061;-56
2022/07/23 09:03:44;;;;;;;7.70;5.60;;;;;;;;;;21253587;27;20130;-59
2022/07/23 09:13:58;;;;;;;10.00;5.07;;;;;;;;;;21254879;27;20069;-56
2022/07/23 09:24:03;;;;;;;6.68;5.07;;;;;;;;;;21252385;27;20057;-55
2022/07/23 09:34:20;;;;;;;11.80;4.78;;;;;;;;;;21251423;27;20506;-56
2022/07/23 09:44:23;;;;;;;7.13;4.72;;;;;;;;;;21250971;27;20047;-54
2022/07/23 09:54:40;;;;;;;10.75;5.10;;;;;;;;;;21248643;27;20055;-55
2022/07/23 10:04:43;;;;;;;15.07;5.15;;;;;;;;;;21249391;27;20052;-55
2022/07/23 10:14:46;;;;;;;9.48;4.93;;;;;;;;;;21248713;27;20465;-55
2022/07/23 10:24:48;;;;;;;7.93;4.97;;;;;;;;;;21247951;27;20093;-56
2022/07/23 10:35:04;;;;;;;7.57;4.22;;;;;;;;;;21259167;27;20051;-55
2022/07/23 10:45:29;;;;;;;6.35;4.00;;;;;;;;;;21265876;27;20100;-55
2022/07/23 10:55:31;;;;;;;8.57;4.25;;;;;;;;;;20837069;28;20052;-54
2022/07/23 11:05:46;;;;;;;10.80;6.75;;;;;;;;;;20835745;28;20061;-57
2022/07/23 11:16:06;;;;;;;6.80;4.10;;;;;;;;;;20835322;28;20132;-56
2022/07/23 11:26:08;;;;;;;5.60;3.00;;;;;;;;;;20940086;27;20410;-56
2022/07/23 11:36:10;;;;;;;9.50;4.10;;;;;;;;;;21261805;27;20394;-55
2022/07/23 11:46:23;;;;;;;6.72;3.90;;;;;;;;;;21260483;27;20043;-56
2022/07/23 11:56:25;;;;;;;5.57;2.90;;;;;;;;;;21260440;27;20039;-56
2022/07/23 12:06:27;;;;;;;6.03;2.75;;;;;;;;;;21258245;27;20047;-55
2022/07/23 12:16:29;;;;;;;5.20;3.10;;;;;;;;;;21257289;27;20092;-55
2022/07/23 12:26:31;;;;;;;6.50;3.33;;;;;;;;;;21256953;27;20153;-54
2022/07/23 12:36:42;;;;;;;5.82;3.00;;;;;;;;;;21256641;27;20144;-54
2022/07/23 12:46:49;;;;;;;8.52;4.55;;;;;;;;;;21236401;27;20051;-55
2022/07/23 12:56:51;;;;;;;7.10;2.45;;;;;;;;;;21253773;27;20043;-55
2022/07/23 13:06:55;;;;;;;4.97;2.63;;;;;;;;;;21253840;27;20051;-56
2022/07/23 13:16:57;;;;;;;5.35;3.00;;;;;;;;;;21251877;27;20047;-55
2022/07/23 13:27:00;;;;;;;13.18;6.40;;;;;;;;;;21251427;27;20057;-57
2022/07/23 13:37:02;;;;;;;7.88;3.20;;;;;;;;;;21241863;27;20051;-56
2022/07/23 13:47:04;;;;;;;6.75;2.67;;;;;;;;;;21250586;27;20051;-56
2022/07/23 13:57:08;;;;;;;5.40;2.40;;;;;;;;;;21248752;27;20117;-56
2022/07/23 14:07:12;;;;;;;6.50;2.30;;;;;;;;;;21249753;27;20059;-56
2022/07/23 14:17:14;;;;;;;4.55;2.40;;;;;;;;;;21248173;27;20396;-55
2022/07/23 14:27:16;;;;;;;3.75;2.00;;;;;;;;;;21248416;27;20062;-57
2022/07/23 14:37:18;;;;;;;8.68;5.30;;;;;;;;;;21247269;28;20054;-55
2022/07/23 14:47:21;;;;;;;3.60;2.10;;;;;;;;;;21246927;28;20054;-55
2022/07/23 14:57:23;;;;;;;5.40;2.17;;;;;;;;;;21248828;28;20487;-56
2022/07/23 15:07:26;;;;;;;3.17;2.00;;;;;;;;;;21247861;28;20204;-55
2022/07/23 15:17:28;;;;;;;5.15;2.40;;;;;;;;;;21249792;27;20054;-57
2022/07/23 15:27:30;;;;;;;4.13;2.00;;;;;;;;;;21261869;27;20055;-55
2022/07/23 15:37:32;;;;;;;3.15;2.20;;;;;;;;;;21227801;27;20048;-57
2022/07/23 15:47:34;;;;;;;3.25;1.90;;;;;;;;;;21175178;28;20376;-56
2022/07/23 15:57:37;;;;;;;2.85;1.98;;;;;;;;;;21173610;28;20475;-56
2022/07/23 16:07:38;;;;;;;4.80;3.17;;;;;;;;;;21173344;28;20443;-54
2022/07/23 16:17:40;;;;;;;3.95;2.30;;;;;;;;;;21172107;28;20043;-56
2022/07/23 16:27:43;;;;;;;4.45;2.20;;;;;;;;;;21170146;28;20052;-55
2022/07/23 16:37:45;;;;;;;3.63;2.95;;;;;;;;;;21206448;27;20046;-56
2022/07/23 16:47:47;;;;;;;3.83;3.42;;;;;;;;;;21255014;27;20084;-56
2022/07/23 16:57:49;;;;;;;4.32;2.63;;;;;;;;;;21253550;27;20059;-57
2022/07/23 17:07:53;;;;;;;5.32;2.70;;;;;;;;;;21253267;27;20051;-56
2022/07/23 17:17:55;;;;;;;2.58;1.85;;;;;;;;;;21253974;27;20054;-59
2022/07/23 17:27:57;;;;;;;2.47;1.80;;;;;;;;;;21251609;27;20058;-54
2022/07/23 17:37:59;;;;;;;2.80;2.00;;;;;;;;;;21252239;27;20054;-53
2022/07/23 17:48:01;;;;;;;3.05;2.00;;;;;;;;;;21251108;27;20051;-54
2022/07/23 17:58:03;;;;;;;2.50;1.80;;;;;;;;;;21249687;27;20046;-56
2022/07/23 18:08:05;;;;;;;3.40;2.75;;;;;;;;;;21248760;27;20047;-55
2022/07/23 18:18:07;;;;;;;2.58;2.00;;;;;;;;;;21249093;27;20411;-54
2022/07/23 18:28:09;;;;;;;2.60;2.00;;;;;;;;;;21248893;27;20051;-54
2022/07/23 18:38:11;;;;;;;4.95;2.40;;;;;;;;;;21247770;28;20082;-54
2022/07/23 18:48:14;;;;;;;4.63;2.80;;;;;;;;;;21247593;28;20047;-56
2022/07/23 18:58:16;;;;;;;3.53;2.70;;;;;;;;;;21261249;27;20046;-55
2022/07/23 19:08:18;;;;;;;4.07;3.03;;;;;;;;;;21264061;27;20083;-56
2022/07/23 19:18:23;;;;;;;6.30;3.55;;;;;;;;;;21262287;27;20411;-57
2022/07/23 19:28:26;;;;;;;5.75;2.97;;;;;;;;;;21261745;27;20475;-56
2022/07/23 19:38:28;;;;;;;5.75;3.78;;;;;;;;;;21260451;27;20525;-55
2022/07/23 19:48:30;;;;;;;9.27;7.63;;;;;;;;;;21260000;27;20047;-55
2022/07/23 19:58:32;;;;;;;5.75;4.15;;;;;;;;;;21259010;27;20411;-58
2022/07/23 20:08:34;;;;;;;4.57;3.83;;;;;;;;;;21258539;27;20051;-57
2022/07/23 20:18:36;;;;;;;4.95;3.25;;;;;;;;;;21255651;27;20058;-55
2022/07/23 20:28:38;;;;;;;6.97;4.32;;;;;;;;;;21255453;27;20085;-55
2022/07/23 20:38:40;;;;;;;7.43;4.13;;;;;;;;;;21255026;27;20075;-55
2022/07/23 20:48:42;;;;;;;9.80;4.90;;;;;;;;;;21253401;27;20066;-55
2022/07/23 20:58:44;;;;;;;7.43;5.00;;;;;;;;;;21253237;27;20138;-55
2022/07/23 21:08:46;;;;;;;7.78;5.65;;;;;;;;;;21251692;27;20138;-54
2022/07/23 21:18:48;;;;;;;8.52;5.57;;;;;;;;;;21250663;27;20054;-57
2022/07/23 21:28:50;;;;;;;8.57;4.72;;;;;;;;;;21250057;27;20090;-56
2022/07/23 21:38:52;;;;;;;7.00;4.15;;;;;;;;;;21249613;27;20491;-55
2022/07/23 21:48:54;;;;;;;9.65;5.50;;;;;;;;;;21249208;27;20066;-56
2022/07/23 21:58:56;;;;;;;7.15;6.03;;;;;;;;;;21249533;27;20431;-56
2022/07/23 22:08:59;;;;;;;6.70;5.38;;;;;;;;;;21248659;27;20104;-55
2022/07/23 22:19:01;;;;;;;8.40;6.32;;;;;;;;;;21248541;27;20069;-55
2022/07/23 22:29:03;;;;;;;6.15;5.28;;;;;;;;;;21250152;27;20047;-55
2022/07/23 22:39:05;;;;;;;7.35;4.78;;;;;;;;;;21247991;28;20414;-54
2022/07/23 22:49:07;;;;;;;18.15;15.35;;;;;;;;;;21246522;28;20108;-53
2022/07/23 22:59:11;;;;;;;12.57;10.23;;;;;;;;;;21247386;28;20047;-54
2022/07/23 23:09:13;;;;;;;6.50;4.82;;;;;;;;;;21245053;28;20043;-55
2022/07/23 23:19:16;;;;;;;6.00;4.78;;;;;;;;;;21244354;28;20047;-56
2022/07/23 23:29:19;;;;;;;9.15;5.40;;;;;;;;;;21245097;28;20043;-56
2022/07/23 23:39:22;;;;;;;7.10;4.45;;;;;;;;;;21249384;27;20107;-56
2022/07/23 23:49:24;;;;;;;6.55;4.30;;;;;;;;;;21259685;27;20538;-55
2022/07/23 23:59:26;;;;;;;6.28;3.47;;;;;;;;;;21258446;27;20058;-55
